createdAt,value
2022-11-28T00:01:47.942Z,13.57
2022-11-28T00:04:17.598Z,9.23
2022-11-28T00:06:49.329Z,13.40
2022-11-28T00:09:18.730Z,12.38
2022-11-28T00:11:48.451Z,9.77
2022-11-28T00:14:17.738Z,11.73
2022-11-28T00:16:46.120Z,13.88
2022-11-28T00:19:14.906Z,11.20
2022-11-28T00:21:44.189Z,12.00
2022-11-28T00:24:12.124Z,9.75
2022-11-28T00:26:42.195Z,14.95
2022-11-28T00:29:11.498Z,11.50
2022-11-28T00:31:43.694Z,12.98
2022-11-28T00:34:13.326Z,9.50
2022-11-28T00:36:41.456Z,9.55
2022-11-28T00:39:10.888Z,11.38
2022-11-28T00:41:46.280Z,10.63
2022-11-28T00:44:14.582Z,9.85
2022-11-28T00:46:42.825Z,14.82
2022-11-28T00:49:10.795Z,11.32
2022-11-28T00:51:39.155Z,11.93
2022-11-28T00:54:10.423Z,12.10
2022-11-28T00:56:40.917Z,11.60
2022-11-28T00:59:09.164Z,12.02
2022-11-28T01:01:39.603Z,12.43
2022-11-28T01:04:10.056Z,12.82
2022-11-28T01:06:39.952Z,11.82
2022-11-28T01:09:10.489Z,13.93
2022-11-28T01:11:40.708Z,12.57
2022-11-28T01:14:09.228Z,10.73
2022-11-28T01:16:39.625Z,10.88
2022-11-28T01:19:08.116Z,13.18
2022-11-28T01:21:37.467Z,11.85
2022-11-28T01:24:06.200Z,13.52
2022-11-28T01:26:34.206Z,11.23
2022-11-28T01:29:03.496Z,16.52
2022-11-28T01:31:32.000Z,11.00
2022-11-28T01:34:00.362Z,11.88
2022-11-28T01:36:28.711Z,11.90
2022-11-28T01:38:56.636Z,10.65
2022-11-28T01:41:26.938Z,9.23
2022-11-28T01:44:35.351Z,12.15
2022-11-28T01:47:04.754Z,11.77
2022-11-28T01:49:38.318Z,9.52
2022-11-28T01:52:11.476Z,12.38
2022-11-28T01:54:42.389Z,14.13
2022-11-28T01:57:14.508Z,10.90
2022-11-28T01:59:46.558Z,42.42
2022-11-28T02:02:24.268Z,12.68
2022-11-28T02:04:53.287Z,8.48
2022-11-28T02:07:21.844Z,10.27
2022-11-28T02:09:49.769Z,10.40
2022-11-28T02:12:32.400Z,10.68
2022-11-28T02:15:15.408Z,13.57
2022-11-28T02:18:01.245Z,9.57
2022-11-28T02:21:07.165Z,10.48
2022-11-28T02:23:58.550Z,10.57
2022-11-28T02:27:11.110Z,10.43
2022-11-28T02:29:58.358Z,8.43
2022-11-28T02:33:10.758Z,10.77
2022-11-28T02:35:54.041Z,10.80
2022-11-28T02:38:29.883Z,10.98
2022-11-28T02:41:01.957Z,10.57
2022-11-28T02:43:39.942Z,11.20
2022-11-28T02:46:14.795Z,12.15
2022-11-28T02:48:49.213Z,12.93
2022-11-28T02:51:25.618Z,11.15
2022-11-28T02:53:56.219Z,10.93
2022-11-28T02:56:25.718Z,9.75
2022-11-28T02:58:54.128Z,12.07
2022-11-28T03:01:25.342Z,11.20
2022-11-28T03:04:11.967Z,12.45
2022-11-28T03:06:51.337Z,10.23
2022-11-28T03:09:48.214Z,10.77
2022-11-28T03:12:22.368Z,11.32
2022-11-28T03:14:54.111Z,10.20
2022-11-28T03:17:42.352Z,10.55
2022-11-28T03:20:21.993Z,17.20
2022-11-28T03:23:07.669Z,15.43
2022-11-28T03:25:42.248Z,11.48
2022-11-28T03:28:15.373Z,12.15
2022-11-28T03:30:48.237Z,13.10
2022-11-28T03:33:18.760Z,12.25
2022-11-28T03:35:52.502Z,15.50
2022-11-28T03:38:24.366Z,11.13
2022-11-28T03:40:56.709Z,11.07
2022-11-28T03:43:29.798Z,12.13
2022-11-28T03:46:01.429Z,10.13
2022-11-28T03:48:33.757Z,11.85
2022-11-28T03:51:06.537Z,13.25
2022-11-28T03:53:43.544Z,14.07
2022-11-28T03:56:15.830Z,17.75
2022-11-28T03:58:50.683Z,14.48
2022-11-28T04:01:31.076Z,13.23
2022-11-28T04:04:11.100Z,13.82
2022-11-28T04:06:52.847Z,12.73
2022-11-28T04:09:33.761Z,11.93
2022-11-28T04:12:08.757Z,15.38
2022-11-28T04:14:42.904Z,13.68
2022-11-28T04:17:17.522Z,13.48
2022-11-28T04:19:52.506Z,13.35
2022-11-28T04:22:25.393Z,15.00
2022-11-28T04:24:59.487Z,19.10
2022-11-28T04:27:31.422Z,15.25
2022-11-28T04:30:02.551Z,11.18
2022-11-28T04:32:34.117Z,15.50
2022-11-28T04:35:06.372Z,11.48
2022-11-28T04:37:38.346Z,12.68
2022-11-28T04:40:14.317Z,13.02
2022-11-28T04:42:51.302Z,15.60
2022-11-28T04:45:27.996Z,13.00
2022-11-28T04:47:56.500Z,10.10
2022-11-28T04:50:29.553Z,12.93
2022-11-28T04:53:03.766Z,13.93
2022-11-28T04:55:37.826Z,13.55
2022-11-28T04:58:10.845Z,13.07
2022-11-28T05:00:39.798Z,13.10
2022-11-28T05:03:09.002Z,12.57
2022-11-28T05:05:44.401Z,11.35
2022-11-28T05:08:12.538Z,14.50
2022-11-28T05:10:42.320Z,12.05
2022-11-28T05:13:10.804Z,11.65
2022-11-28T05:15:38.984Z,12.68
2022-11-28T05:18:07.247Z,15.20
2022-11-28T05:20:38.667Z,13.20
2022-11-28T05:23:06.591Z,12.68
2022-11-28T05:25:34.539Z,12.73
2022-11-28T05:28:04.047Z,14.02
2022-11-28T05:30:32.056Z,18.23
2022-11-28T05:33:00.598Z,11.57
2022-11-28T05:35:28.564Z,15.43
2022-11-28T05:37:56.485Z,13.23
2022-11-28T05:40:24.797Z,11.00
2022-11-28T05:42:52.733Z,13.70
2022-11-28T05:45:22.169Z,11.07
2022-11-28T05:47:50.336Z,15.07
2022-11-28T05:50:20.731Z,14.30
2022-11-28T05:52:48.772Z,12.75
2022-11-28T05:55:17.046Z,13.85
2022-11-28T05:57:45.046Z,15.40
2022-11-28T06:00:14.327Z,14.15
2022-11-28T06:02:43.692Z,11.10
2022-11-28T06:05:40.393Z,13.60
2022-11-28T06:07:59.777Z,14.57
2022-11-28T06:10:27.706Z,12.82
2022-11-28T06:12:55.608Z,12.98
2022-11-28T06:15:23.691Z,13.07
2022-11-28T06:17:52.937Z,14.60
2022-11-28T06:20:20.912Z,14.93
2022-11-28T06:22:49.090Z,14.48
2022-11-28T06:25:17.005Z,14.68
2022-11-28T06:27:46.736Z,17.48
2022-11-28T06:30:17.440Z,14.05
2022-11-28T06:32:45.799Z,13.25
2022-11-28T06:35:15.276Z,15.77
2022-11-28T06:37:45.111Z,14.93
2022-11-28T06:40:14.914Z,16.52
2022-11-28T06:42:42.891Z,15.20
2022-11-28T06:45:11.391Z,14.88
2022-11-28T06:47:39.295Z,12.32
2022-11-28T06:50:09.728Z,10.88
2022-11-28T06:52:39.099Z,16.50
2022-11-28T06:55:07.429Z,16.15
2022-11-28T06:57:35.639Z,13.45
2022-11-28T07:00:05.161Z,18.27
2022-11-28T07:02:34.002Z,17.25
2022-11-28T07:05:02.344Z,16.23
2022-11-28T07:07:30.469Z,15.35
2022-11-28T07:10:00.210Z,16.02
2022-11-28T07:12:28.696Z,15.02
2022-11-28T07:14:56.914Z,16.05
2022-11-28T07:17:25.140Z,13.95
2022-11-28T07:19:55.070Z,17.48
2022-11-28T07:22:24.049Z,16.52
2022-11-28T07:24:52.358Z,14.95
2022-11-28T07:27:21.745Z,15.65
2022-11-28T07:29:55.899Z,11.57
2022-11-28T07:32:24.228Z,20.02
2022-11-28T07:34:54.036Z,16.45
2022-11-28T07:37:22.229Z,14.20
2022-11-28T07:39:53.422Z,18.75
2022-11-28T07:42:24.630Z,16.60
2022-11-28T07:45:04.747Z,17.65
2022-11-28T07:47:32.795Z,19.50
2022-11-28T07:50:00.795Z,17.75
2022-11-28T07:52:28.772Z,15.07
2022-11-28T07:54:56.719Z,13.50
2022-11-28T07:57:26.329Z,15.25
2022-11-28T07:59:54.334Z,16.90
2022-11-28T08:02:22.351Z,17.02
2022-11-28T08:04:54.945Z,15.88
2022-11-28T08:07:23.553Z,16.65
2022-11-28T08:09:52.460Z,13.15
2022-11-28T08:12:20.522Z,13.27
2022-11-28T08:14:50.599Z,14.98
2022-11-28T08:17:18.861Z,15.30
2022-11-28T08:19:47.101Z,18.23
2022-11-28T08:22:15.201Z,15.20
2022-11-28T08:24:43.509Z,15.45
2022-11-28T08:27:12.328Z,17.05
2022-11-28T08:29:40.931Z,13.52
2022-11-28T08:32:20.439Z,14.57
2022-11-28T08:34:48.659Z,27.25
2022-11-28T08:37:17.439Z,21.70
2022-11-28T08:39:45.702Z,16.20
2022-11-28T08:42:13.938Z,22.48
2022-11-28T08:44:42.445Z,18.38
2022-11-28T08:47:12.304Z,12.88
2022-11-28T08:49:40.583Z,16.17
2022-11-28T08:52:09.019Z,13.40
2022-11-28T08:54:37.371Z,12.48
2022-11-28T08:57:05.614Z,14.88
2022-11-28T08:59:33.820Z,14.18
2022-11-28T09:02:01.960Z,13.98
2022-11-28T09:04:32.005Z,17.17
2022-11-28T09:07:00.108Z,18.17
2022-11-28T09:09:32.738Z,15.25
2022-11-28T09:12:01.162Z,13.45
2022-11-28T09:14:29.314Z,14.75
2022-11-28T09:16:59.965Z,16.80
2022-11-28T09:19:31.837Z,13.43
2022-11-28T09:22:02.124Z,13.38
2022-11-28T09:24:30.138Z,14.60
2022-11-28T09:26:58.085Z,15.27
2022-11-28T09:29:26.285Z,18.85
2022-11-28T09:31:54.324Z,20.50
2022-11-28T09:34:22.381Z,15.05
2022-11-28T09:36:51.680Z,14.75
2022-11-28T09:39:19.956Z,14.65
2022-11-28T09:42:13.430Z,18.98
2022-11-28T09:44:47.659Z,13.27
2022-11-28T09:47:21.080Z,18.65
2022-11-28T09:49:53.044Z,18.55
2022-11-28T09:52:34.889Z,19.58
2022-11-28T09:55:16.907Z,19.00
2022-11-28T09:57:48.334Z,16.98
2022-11-28T10:00:18.708Z,16.38
2022-11-28T10:03:02.627Z,17.17
2022-11-28T10:05:37.080Z,14.38
2022-11-28T10:08:20.767Z,15.05
2022-11-28T10:10:58.791Z,15.95
2022-11-28T10:14:05.951Z,15.88
2022-11-28T10:16:36.377Z,18.25
2022-11-28T10:19:25.561Z,14.43
2022-11-28T10:22:02.687Z,16.17
2022-11-28T10:24:38.400Z,20.38
2022-11-28T10:27:12.112Z,23.63
2022-11-28T10:29:49.007Z,22.00
2022-11-28T10:32:21.599Z,21.88
2022-11-28T10:34:59.528Z,15.75
2022-11-28T10:37:29.870Z,16.30
2022-11-28T10:40:13.770Z,16.17
2022-11-28T10:42:47.332Z,15.27
2022-11-28T10:45:24.312Z,19.00
2022-11-28T10:48:37.065Z,17.38
2022-11-28T10:51:02.125Z,15.55
2022-11-28T10:53:42.859Z,14.23
2022-11-28T10:56:25.227Z,19.15
2022-11-28T10:58:59.527Z,16.13
2022-11-28T11:01:30.974Z,15.32
2022-11-28T11:03:59.605Z,12.10
2022-11-28T11:06:40.893Z,15.48
2022-11-28T11:09:34.377Z,14.68
2022-11-28T11:12:06.352Z,15.98
2022-11-28T11:14:36.833Z,17.75
2022-11-28T11:17:08.099Z,13.43
2022-11-28T11:19:38.682Z,14.63
2022-11-28T11:22:21.133Z,14.10
2022-11-28T11:25:06.790Z,16.02
2022-11-28T11:27:37.673Z,14.48
2022-11-28T11:30:18.814Z,16.08
2022-11-28T11:32:51.589Z,14.55
2022-11-28T11:35:22.797Z,11.85
2022-11-28T11:37:50.951Z,14.18
2022-11-28T11:40:23.735Z,16.52
2022-11-28T11:42:57.229Z,14.80
2022-11-28T11:45:29.256Z,13.27
2022-11-28T11:47:57.550Z,13.95
2022-11-28T11:50:28.035Z,16.88
2022-11-28T11:53:07.746Z,12.98
2022-11-28T11:55:45.675Z,13.95
2022-11-28T11:58:21.893Z,14.77
2022-11-28T12:00:53.259Z,14.85
2022-11-28T12:03:30.687Z,11.82
2022-11-28T12:06:17.850Z,11.65
2022-11-28T12:08:51.651Z,16.20
2022-11-28T12:11:26.136Z,13.52
2022-11-28T12:13:58.370Z,13.70
2022-11-28T12:16:45.691Z,13.57
2022-11-28T12:19:24.755Z,14.90
2022-11-28T12:22:06.207Z,11.00
2022-11-28T12:24:42.670Z,24.35
2022-11-28T12:27:26.824Z,15.57
2022-11-28T12:30:06.184Z,18.98
2022-11-28T12:32:47.000Z,12.63
2022-11-28T12:35:28.086Z,12.05
2022-11-28T12:38:11.451Z,14.25
2022-11-28T12:40:51.204Z,19.20
2022-11-28T12:43:34.447Z,12.52
2022-11-28T12:46:12.320Z,14.05
2022-11-28T12:48:57.468Z,14.70
2022-11-28T12:51:35.419Z,14.40
2022-11-28T12:54:16.277Z,15.07
2022-11-28T12:56:58.986Z,16.58
2022-11-28T12:59:41.345Z,19.25
2022-11-28T13:02:26.344Z,17.45
2022-11-28T13:05:07.165Z,19.58
2022-11-28T13:07:44.480Z,21.00
2022-11-28T13:10:24.510Z,17.52
2022-11-28T13:12:59.182Z,20.60
2022-11-28T13:15:47.644Z,17.33
2022-11-28T13:18:30.488Z,19.58
2022-11-28T13:21:08.014Z,17.40
2022-11-28T13:23:45.242Z,14.90
2022-11-28T13:26:24.051Z,14.00
2022-11-28T13:29:00.245Z,17.27
2022-11-28T13:31:35.829Z,15.60
2022-11-28T13:34:05.991Z,20.17
2022-11-28T13:39:43.282Z,17.90
2022-11-28T13:45:32.746Z,14.82
2022-11-28T13:48:01.325Z,15.43
2022-11-28T13:50:40.574Z,18.77
2022-11-28T13:53:25.790Z,13.00
2022-11-28T13:56:16.531Z,15.75
2022-11-28T13:58:52.062Z,16.38
2022-11-28T14:01:22.416Z,21.30
2022-11-28T14:03:53.899Z,24.25
2022-11-28T14:06:26.561Z,19.35
2022-11-28T14:09:08.176Z,23.17
2022-11-28T14:12:12.379Z,16.27
2022-11-28T14:15:09.185Z,20.02
2022-11-28T14:18:00.740Z,20.33
2022-11-28T14:20:39.280Z,20.17
2022-11-28T14:23:26.281Z,23.15
2022-11-28T14:25:55.615Z,21.65
2022-11-28T14:28:28.669Z,19.40
2022-11-28T14:31:05.149Z,20.63
2022-11-28T14:33:39.009Z,23.80
2022-11-28T14:36:24.785Z,22.80
2022-11-28T14:39:36.096Z,23.92
2022-11-28T14:45:44.699Z,21.27
2022-11-28T14:48:20.811Z,25.02
2022-11-28T14:50:59.031Z,23.08
2022-11-28T14:53:53.070Z,21.80
2022-11-28T14:56:28.980Z,23.65
2022-11-28T14:58:59.837Z,23.48
2022-11-28T15:01:45.623Z,20.92
2022-11-28T15:04:54.847Z,20.83
2022-11-28T15:07:34.204Z,20.95
2022-11-28T15:10:10.210Z,22.05
2022-11-28T15:12:51.900Z,20.33
2022-11-28T15:15:22.816Z,20.70
2022-11-28T15:17:54.478Z,20.23
2022-11-28T15:20:29.302Z,19.38
2022-11-28T15:22:58.086Z,20.98
2022-11-28T15:25:29.494Z,22.17
2022-11-28T15:28:14.404Z,24.88
2022-11-28T15:30:46.644Z,34.13
2022-11-28T15:33:16.179Z,27.35
2022-11-28T15:35:56.156Z,26.40
2022-11-28T15:38:24.885Z,17.42
2022-11-28T15:40:54.778Z,19.50
2022-11-28T15:43:26.427Z,22.88
2022-11-28T15:45:58.700Z,20.15
2022-11-28T15:48:28.944Z,23.88
2022-11-28T15:50:57.413Z,25.67
2022-11-28T15:53:29.795Z,24.58
2022-11-28T15:56:11.980Z,21.58
2022-11-28T15:58:42.166Z,22.75
2022-11-28T16:01:19.123Z,19.67
2022-11-28T16:03:53.531Z,20.17
2022-11-28T16:06:24.440Z,23.83
2022-11-28T16:08:55.990Z,19.75
2022-11-28T16:11:26.006Z,21.83
2022-11-28T16:13:58.514Z,21.92
2022-11-28T16:16:29.873Z,30.77
2022-11-28T16:19:00.522Z,19.30
2022-11-28T16:21:33.340Z,24.55
2022-11-28T16:24:02.202Z,22.67
2022-11-28T16:26:33.850Z,26.85
2022-11-28T16:29:13.429Z,23.67
2022-11-28T16:31:43.371Z,20.90
2022-11-28T16:34:14.687Z,23.63
2022-11-28T16:36:45.781Z,18.38
2022-11-28T16:39:18.311Z,24.77
2022-11-28T16:41:51.978Z,25.75
2022-11-28T16:44:25.890Z,22.87
2022-11-28T16:46:56.255Z,22.15
2022-11-28T16:49:34.778Z,21.92
2022-11-28T16:52:57.597Z,24.77
2022-11-28T16:55:47.853Z,21.33
2022-11-28T16:58:25.262Z,25.23
2022-11-28T17:01:01.802Z,21.10
2022-11-28T17:03:51.408Z,21.13
2022-11-28T17:06:22.673Z,24.50
2022-11-28T17:08:51.197Z,25.25
2022-11-28T17:11:23.197Z,22.75
2022-11-28T17:13:52.428Z,25.20
2022-11-28T17:16:25.989Z,21.92
2022-11-28T17:18:55.138Z,26.85
2022-11-28T17:21:32.365Z,26.38
2022-11-28T17:24:00.986Z,29.52
2022-11-28T17:26:29.871Z,26.08
2022-11-28T17:28:59.067Z,25.58
2022-11-28T17:31:31.469Z,23.80
2022-11-28T17:33:59.539Z,26.33
2022-11-28T17:36:27.557Z,28.38
2022-11-28T17:38:56.492Z,30.65
2022-11-28T17:41:26.908Z,24.23
2022-11-28T17:43:54.904Z,30.98
2022-11-28T17:46:23.320Z,27.25
2022-11-28T17:48:53.151Z,24.30
2022-11-28T17:51:21.452Z,24.33
2022-11-28T17:53:50.656Z,25.67
2022-11-28T17:56:18.917Z,30.38
2022-11-28T17:58:47.002Z,31.38
2022-11-28T18:01:19.013Z,25.10
2022-11-28T18:03:47.254Z,24.95
2022-11-28T18:06:18.404Z,27.13
2022-11-28T18:08:47.462Z,26.30
2022-11-28T18:11:16.293Z,28.25
2022-11-28T18:13:46.512Z,27.40
2022-11-28T18:16:17.448Z,28.50
2022-11-28T18:18:46.285Z,27.30
2022-11-28T18:21:15.115Z,28.75
2022-11-28T18:23:50.697Z,27.30
2022-11-28T18:26:22.826Z,29.27
2022-11-28T18:28:51.841Z,32.22
2022-11-28T18:31:22.947Z,22.85
2022-11-28T18:33:51.861Z,27.30
2022-11-28T18:36:25.473Z,24.45
2022-11-28T18:38:57.732Z,27.00
2022-11-28T18:41:26.204Z,29.50
2022-11-28T18:43:56.000Z,33.28
2022-11-28T18:46:27.072Z,25.55
2022-11-28T18:48:55.090Z,25.35
2022-11-28T18:51:27.329Z,28.52
2022-11-28T18:53:58.115Z,33.38
2022-11-28T18:56:29.305Z,88.20
2022-11-28T18:58:59.362Z,104.20
2022-11-28T19:01:32.464Z,37.53
2022-11-28T19:04:01.864Z,29.20
2022-11-28T19:06:30.578Z,35.55
2022-11-28T19:09:01.745Z,27.70
2022-11-28T19:11:30.737Z,24.95
2022-11-28T19:14:01.304Z,28.83
2022-11-28T19:16:35.234Z,24.73
2022-11-28T19:19:04.295Z,30.63
2022-11-28T19:21:36.995Z,28.05
2022-11-28T19:24:08.762Z,28.30
2022-11-28T19:26:44.815Z,29.67
2022-11-28T19:29:15.999Z,28.98
2022-11-28T19:31:44.348Z,28.70
2022-11-28T19:34:14.495Z,34.65
2022-11-28T19:36:44.862Z,32.75
2022-11-28T19:39:17.994Z,24.92
2022-11-28T19:41:47.421Z,27.45
2022-11-28T19:44:16.763Z,27.88
2022-11-28T19:46:45.815Z,27.60
2022-11-28T19:49:19.072Z,29.42
2022-11-28T19:51:51.660Z,29.30
2022-11-28T19:54:21.958Z,30.00
2022-11-28T19:56:51.050Z,25.17
2022-11-28T19:59:19.924Z,27.60
2022-11-28T20:01:50.051Z,24.63
2022-11-28T20:04:22.500Z,32.40
2022-11-28T20:06:50.801Z,27.73
2022-11-28T20:09:19.235Z,24.63
2022-11-28T20:11:50.446Z,26.73
2022-11-28T20:14:20.788Z,23.08
2022-11-28T20:16:49.417Z,23.60
2022-11-28T20:19:26.450Z,32.30
2022-11-28T20:21:56.425Z,27.80
2022-11-28T20:24:24.600Z,27.15
2022-11-28T20:26:54.214Z,30.45
2022-11-28T20:29:26.727Z,26.42
2022-11-28T20:31:56.968Z,26.88
2022-11-28T20:34:25.556Z,27.77
2022-11-28T20:36:54.427Z,31.67
2022-11-28T20:39:23.127Z,24.75
2022-11-28T20:41:51.639Z,27.58
2022-11-28T20:44:21.246Z,34.05
2022-11-28T20:46:51.283Z,24.08
2022-11-28T20:49:20.117Z,30.00
2022-11-28T20:51:51.394Z,26.05
2022-11-28T20:54:20.290Z,28.42
2022-11-28T20:59:39.956Z,30.73
2022-11-28T21:02:10.085Z,45.55
2022-11-28T21:04:38.485Z,35.72
2022-11-28T21:07:08.440Z,28.40
2022-11-28T21:09:39.543Z,27.27
2022-11-28T21:12:08.365Z,24.70
2022-11-28T21:14:42.266Z,23.02
2022-11-28T21:17:10.615Z,27.60
2022-11-28T21:19:39.058Z,23.98
2022-11-28T21:22:07.297Z,27.38
2022-11-28T21:24:35.446Z,24.30
2022-11-28T21:27:04.162Z,24.30
2022-11-28T21:29:32.380Z,25.48
2022-11-28T21:32:02.122Z,26.45
2022-11-28T21:34:30.294Z,26.30
2022-11-28T21:36:58.224Z,25.45
2022-11-28T21:39:29.198Z,23.23
2022-11-28T21:41:57.111Z,25.17
2022-11-28T21:44:25.391Z,24.38
2022-11-28T21:46:56.439Z,26.27
2022-11-28T21:49:25.838Z,25.33
2022-11-28T21:51:55.068Z,24.67
2022-11-28T21:54:26.647Z,23.17
2022-11-28T21:56:54.800Z,30.73
2022-11-28T21:59:22.894Z,27.52
2022-11-28T22:01:51.231Z,22.48
2022-11-28T22:04:21.975Z,27.17
2022-11-28T22:06:54.071Z,23.00
2022-11-28T22:09:25.127Z,20.05
2022-11-28T22:11:53.830Z,24.23
2022-11-28T22:14:21.987Z,22.83
2022-11-28T22:16:50.021Z,19.98
2022-11-28T22:19:18.478Z,23.48
2022-11-28T22:21:55.500Z,23.80
2022-11-28T22:24:27.720Z,21.73
2022-11-28T22:26:56.407Z,22.65
2022-11-28T22:29:25.153Z,22.35
2022-11-28T22:31:54.209Z,20.83
2022-11-28T22:34:24.742Z,21.33
2022-11-28T22:36:52.874Z,22.30
2022-11-28T22:39:23.340Z,23.95
2022-11-28T22:41:52.759Z,23.48
2022-11-28T22:44:22.007Z,25.60
2022-11-28T22:46:50.334Z,23.13
2022-11-28T22:49:19.541Z,21.35
2022-11-28T22:51:48.143Z,22.20
2022-11-28T22:54:16.093Z,24.25
2022-11-28T22:56:44.595Z,24.02
2022-11-28T22:59:15.689Z,22.42
2022-11-28T23:01:44.230Z,24.50
2022-11-28T23:04:12.687Z,24.05
2022-11-28T23:06:40.773Z,22.63
2022-11-28T23:09:11.344Z,23.15
2022-11-28T23:11:40.748Z,24.05
2022-11-28T23:14:10.375Z,21.88
2022-11-28T23:16:41.329Z,22.17
2022-11-28T23:19:12.490Z,22.35
2022-11-28T23:21:42.225Z,23.98
2022-11-28T23:24:14.181Z,21.83
2022-11-28T23:26:42.233Z,28.80
2022-11-28T23:29:10.740Z,21.40
2022-11-28T23:31:41.750Z,26.90
2022-11-28T23:34:11.749Z,26.73
2022-11-28T23:36:42.905Z,23.60
2022-11-28T23:39:13.424Z,25.65
2022-11-28T23:41:42.004Z,19.13
2022-11-28T23:44:11.610Z,21.67
2022-11-28T23:46:41.751Z,23.60
2022-11-28T23:49:10.241Z,20.40
2022-11-28T23:51:40.009Z,22.58
2022-11-28T23:54:08.376Z,21.50
2022-11-28T23:56:37.504Z,23.08
2022-11-28T23:59:08.567Z,23.63
